Timken, Kansas
Current Conditions -  °F | °C
As of 9:55 PM on Friday 19 Dec 2014 (Local Time) from KGBD Reporting Station
Clear Clear  
Wind Chill: 26°   Ceiling: Unl
Heat Index: 34°   Visibility: 8mi
Dew Point: 28°   Wind: 9mph
Humidity: 81%   Direction: 210°SSW
Pressure: 30.12"   Gusts: NA
Location:  38.4163°N, 99.2527°W
Report Text: KGBD 200355Z AUTO 21008KT 8SM CLR 01/M02 A3012 RMK AO1
Loading
Personal Weather Stations






























Interactive Weather Map New forecast layout! Learn more

10-Day Weather Forecast

Advertisements
Track Severe Weather on mobile